Time;durP1;ratioP1;P1;durP2;ratioP2;P2;SDS_P1;SDS_P2;PMS_P1;PMS_P2;Temp;Humidity;BMP_temperature;BMP_pressure;BME280_temperature;BME280_humidity;BME280_pressure;Samples;Min_cycle;Max_cycle;Signal;HPM_P1;HPM_P2
2021/11/19 00:01:18;;;;;;;20.70;10.40;;;;;;;6.18;70.33;99155.03;5089567;28;20018;-73
2021/11/19 00:03:44;;;;;;;19.30;10.60;;;;;;;6.18;70.38;99130.50;5087911;28;20062;-73
2021/11/19 00:06:10;;;;;;;21.80;10.73;;;;;;;6.16;70.61;99144.38;5090269;28;20582;-71
2021/11/19 00:08:36;;;;;;;18.65;10.10;;;;;;;6.16;70.36;99124.47;5071561;28;20028;-73
2021/11/19 00:11:05;;;;;;;17.80;9.40;;;;;;;6.15;70.50;99128.28;5089516;28;20051;-72
2021/11/19 00:13:30;;;;;;;21.42;9.95;;;;;;;6.11;70.96;99123.34;5088527;28;20028;-72
2021/11/19 00:15:57;;;;;;;21.33;10.05;;;;;;;6.11;70.83;99130.69;5071627;28;20516;-73
2021/11/19 00:18:23;;;;;;;19.48;9.90;;;;;;;6.09;70.93;99124.66;5089279;28;20032;-73
2021/11/19 00:20:49;;;;;;;23.08;9.70;;;;;;;6.07;70.82;99122.22;5090289;28;20032;-74
2021/11/19 00:23:15;;;;;;;18.73;9.45;;;;;;;6.04;71.13;99120.00;5090514;28;20031;-74
2021/11/19 00:25:41;;;;;;;18.52;9.27;;;;;;;6.01;71.11;99125.09;5089894;28;20428;-73
2021/11/19 00:28:07;;;;;;;20.63;10.00;;;;;;;5.99;71.32;99129.94;5090839;28;20035;-73
2021/11/19 00:30:35;;;;;;;18.65;9.10;;;;;;;5.97;71.54;99117.38;5089630;28;20044;-73
2021/11/19 00:33:02;;;;;;;18.70;9.13;;;;;;;5.95;71.76;99141.31;5072090;28;20542;-73
2021/11/19 00:35:28;;;;;;;20.05;10.15;;;;;;;5.93;71.60;99140.75;5090340;28;20051;-71
2021/11/19 00:37:56;;;;;;;20.70;9.95;;;;;;;5.91;71.78;99151.06;5090679;28;20078;-72
2021/11/19 00:40:33;;;;;;;16.45;10.00;;;;;;;5.90;71.84;99151.31;5071907;28;20039;-72
2021/11/19 00:42:59;;;;;;;19.98;10.07;;;;;;;5.87;72.07;99149.94;5089093;28;20028;-72
2021/11/19 00:45:25;;;;;;;17.60;9.63;;;;;;;5.86;72.11;99144.72;5090364;28;20104;-72
2021/11/19 00:47:55;;;;;;;18.92;9.85;;;;;;;5.86;72.39;99144.72;5089799;28;20031;-73
2021/11/19 00:50:24;;;;;;;21.27;9.73;;;;;;;5.80;72.66;99133.75;5090435;28;20371;-73
2021/11/19 00:52:50;;;;;;;19.00;10.05;;;;;;;5.78;72.92;99135.06;5090045;28;20723;-73
2021/11/19 00:55:15;;;;;;;16.92;8.73;;;;;;;5.74;73.03;99128.47;5093029;28;20111;-73
2021/11/19 00:57:42;;;;;;;19.75;9.00;;;;;;;5.70;72.84;99127.31;5092642;28;20032;-71
2021/11/19 01:00:11;;;;;;;15.85;8.60;;;;;;;5.66;73.23;99124.28;5093607;28;20067;-72
2021/11/19 01:02:36;;;;;;;18.48;9.93;;;;;;;5.66;73.31;99135.16;5092861;28;20062;-72
2021/11/19 01:05:02;;;;;;;18.00;9.15;;;;;;;5.66;72.97;99156.94;5093323;28;20052;-73
2021/11/19 01:07:28;;;;;;;17.95;9.25;;;;;;;5.65;73.11;99137.03;5092931;28;20085;-73
2021/11/19 01:09:56;;;;;;;18.05;9.20;;;;;;;5.65;72.89;99147.13;5074895;28;20028;-73
2021/11/19 01:12:28;;;;;;;21.10;10.43;;;;;;;5.65;73.33;99138.97;5092677;28;20034;-74
2021/11/19 01:15:30;;;;;;;18.60;8.43;;;;;;;5.63;73.87;99132.94;5092627;28;20055;-73
2021/11/19 01:18:01;;;;;;;17.48;9.25;;;;;;;5.64;73.76;99135.41;5092013;28;20505;-73
2021/11/19 01:20:40;;;;;;;17.75;8.98;;;;;;;5.59;73.79;99140.75;5092403;28;20028;-74
2021/11/19 01:23:12;;;;;;;19.45;10.13;;;;;;;5.58;74.02;99141.81;5092513;28;20032;-74
2021/11/19 01:25:46;;;;;;;16.40;9.07;;;;;;;5.56;74.45;99133.06;5092115;28;20032;-74
2021/11/19 01:28:13;;;;;;;18.50;10.07;;;;;;;5.53;74.11;99130.03;5092229;28;20038;-72
2021/11/19 01:30:44;;;;;;;19.35;10.25;;;;;;;5.52;74.66;99126.47;5073236;28;20040;-74
2021/11/19 01:33:10;;;;;;;19.73;11.13;;;;;;;5.51;74.26;99128.38;5092744;28;20031;-74
2021/11/19 01:35:36;;;;;;;20.35;10.68;;;;;;;5.51;74.48;99116.66;5092610;28;20165;-73
2021/11/19 01:38:03;;;;;;;20.77;10.77;;;;;;;5.48;74.78;99117.19;5092427;28;20111;-73
2021/11/19 01:40:32;;;;;;;20.02;10.85;;;;;;;5.46;75.33;99116.59;5092035;28;20483;-72
2021/11/19 01:43:03;;;;;;;23.80;10.30;;;;;;;5.42;75.18;99105.38;5092666;28;20017;-73
2021/11/19 01:45:41;;;;;;;19.25;10.18;;;;;;;5.38;75.81;99097.97;5092633;28;20020;-73
2021/11/19 01:48:09;;;;;;;19.85;9.95;;;;;;;5.36;75.60;99103.63;5092491;28;20027;-73
2021/11/19 01:50:35;;;;;;;20.17;9.80;;;;;;;5.33;75.82;99113.13;5091976;28;20540;-72
2021/11/19 01:53:06;;;;;;;21.27;10.55;;;;;;;5.32;76.29;99099.75;5092522;28;20131;-73
2021/11/19 01:55:39;;;;;;;16.63;9.48;;;;;;;5.28;76.69;99096.72;5092701;28;20024;-73
2021/11/19 01:58:09;;;;;;;22.55;11.95;;;;;;;5.25;76.33;99108.06;5074128;28;20036;-72
2021/11/19 02:00:57;;;;;;;22.92;12.18;;;;;;;5.21;76.66;99101.47;5092319;28;20040;-72
2021/11/19 02:03:27;;;;;;;23.13;10.45;;;;;;;5.18;77.00;99096.53;5091819;28;20055;-72
2021/11/19 02:06:00;;;;;;;17.35;9.55;;;;;;;5.18;76.96;99099.25;5092617;28;20048;-72
2021/11/19 02:08:29;;;;;;;21.63;11.30;;;;;;;5.18;77.14;99100.09;5092365;28;20559;-72
2021/11/19 02:11:13;;;;;;;29.27;13.30;;;;;;;5.18;77.15;99093.81;5092382;28;20054;-72
2021/11/19 02:13:44;;;;;;;21.83;10.30;;;;;;;5.16;77.28;99099.50;5091408;28;20020;-72
2021/11/19 02:16:17;;;;;;;23.40;10.98;;;;;;;5.15;77.38;99095.13;5073444;28;20024;-72
2021/11/19 02:18:51;;;;;;;25.33;11.88;;;;;;;5.13;77.50;99089.09;5092209;28;20036;-73
2021/11/19 02:21:23;;;;;;;21.58;11.00;;;;;;;5.12;77.73;99086.63;5091942;28;20093;-72
2021/11/19 02:24:05;;;;;;;22.80;11.52;;;;;;;5.10;78.01;99086.03;5089266;28;20056;-71
2021/11/19 02:26:47;;;;;;;22.85;11.43;;;;;;;5.03;78.59;99081.59;5090912;28;20024;-70
2021/11/19 02:29:13;;;;;;;22.92;11.43;;;;;;;5.00;78.00;99086.69;5091100;28;20077;-70
2021/11/19 02:31:57;;;;;;;20.15;10.48;;;;;;;4.98;78.77;99088.81;5090788;28;20115;-71
2021/11/19 02:34:24;;;;;;;22.42;11.13;;;;;;;4.95;78.80;99095.59;5091157;28;20550;-71
2021/11/19 02:37:03;;;;;;;22.67;12.60;;;;;;;4.91;78.50;99084.34;5091739;28;20028;-72
2021/11/19 02:39:38;;;;;;;24.63;12.60;;;;;;;4.90;79.17;99074.56;5089697;28;20520;-72
2021/11/19 02:42:16;;;;;;;20.42;11.50;;;;;;;4.88;78.95;99079.44;5091368;28;20028;-72
2021/11/19 02:44:44;;;;;;;24.55;11.60;;;;;;;4.89;79.78;99075.63;5073874;28;20046;-72
2021/11/19 02:47:20;;;;;;;22.73;12.45;;;;;;;4.86;79.80;99073.41;5091438;28;20020;-72
2021/11/19 02:49:46;;;;;;;23.48;11.23;;;;;;;4.82;79.55;99074.13;5091332;28;20126;-72
2021/11/19 02:52:20;;;;;;;25.30;11.98;;;;;;;4.78;80.33;99065.66;5091112;28;20051;-71
2021/11/19 02:54:46;;;;;;;21.05;10.55;;;;;;;4.74;80.56;99065.28;5090727;28;20028;-72
2021/11/19 02:57:12;;;;;;;21.73;11.35;;;;;;;4.71;80.60;99070.41;5091181;28;20373;-73
2021/11/19 02:59:37;;;;;;;24.77;13.57;;;;;;;4.70;80.88;99064.13;5091320;28;20484;-72
2021/11/19 03:02:07;;;;;;;27.17;14.00;;;;;;;4.68;81.51;99054.59;5090790;28;20028;-73
2021/11/19 03:04:53;;;;;;;;;;;;;;;4.65;81.39;99058.63;5089603;28;20016;-72
2021/11/19 03:07:19;;;;;;;21.25;11.25;;;;;;;4.62;81.36;99053.66;5089294;28;19923;-73
2021/11/19 03:10:01;;;;;;;22.70;12.23;;;;;;;4.59;80.83;99051.44;5091271;28;20119;-72
2021/11/19 03:12:27;;;;;;;24.52;12.35;;;;;;;4.56;81.52;99049.19;5090206;28;20032;-73
2021/11/19 03:14:55;;;;;;;24.02;12.32;;;;;;;4.53;81.56;99050.50;5071717;28;20039;-72
2021/11/19 03:17:23;;;;;;;27.05;12.73;;;;;;;4.54;82.25;99054.03;5090945;28;20032;-72
2021/11/19 03:19:49;;;;;;;24.95;12.90;;;;;;;4.53;82.25;99052.41;5088722;28;20052;-73
2021/11/19 03:22:17;;;;;;;29.23;15.40;;;;;;;4.49;82.45;99041.16;5090432;28;20058;-73
2021/11/19 03:24:43;;;;;;;25.20;13.20;;;;;;;4.47;82.33;99036.00;5089829;28;20031;-73
2021/11/19 03:27:11;;;;;;;21.13;11.80;;;;;;;4.46;82.76;99037.06;5089113;28;20028;-73
2021/11/19 03:29:41;;;;;;;23.27;12.10;;;;;;;4.49;82.61;99041.16;5090157;28;20020;-72
2021/11/19 03:32:08;;;;;;;23.67;11.68;;;;;;;4.49;82.91;99033.03;5089811;28;20028;-73
2021/11/19 03:34:34;;;;;;;25.17;12.90;;;;;;;4.51;82.77;99041.75;5089414;28;20092;-72
2021/11/19 03:37:00;;;;;;;27.40;13.13;;;;;;;4.49;82.96;99041.16;5090439;28;20598;-73
2021/11/19 03:39:28;;;;;;;23.63;12.48;;;;;;;4.49;83.02;99032.22;5089831;28;20373;-71
2021/11/19 03:41:56;;;;;;;36.60;20.52;;;;;;;4.47;82.90;99027.84;5089704;28;20570;-73
2021/11/19 03:44:35;;;;;;;33.10;16.73;;;;;;;4.44;83.37;99030.22;5089057;28;20081;-73
2021/11/19 03:47:03;;;;;;;30.08;14.85;;;;;;;4.47;83.69;99029.75;5088795;28;20472;-73
2021/11/19 03:49:29;;;;;;;24.08;13.15;;;;;;;4.45;82.94;99027.25;5087960;28;20028;-72
2021/11/19 03:52:04;;;;;;;24.88;13.90;;;;;;;4.43;83.73;99036.72;5069865;28;20468;-72
2021/11/19 03:54:31;;;;;;;24.08;13.38;;;;;;;4.42;83.25;99032.38;5087680;28;20022;-72
2021/11/19 03:56:58;;;;;;;25.95;13.15;;;;;;;4.40;83.07;99038.03;5089943;28;20062;-72
2021/11/19 03:59:25;;;;;;;23.67;12.45;;;;;;;4.42;83.88;99045.94;5089727;28;21368;-72
2021/11/19 04:01:54;;;;;;;24.35;12.52;;;;;;;4.39;84.11;99049.94;5088162;28;20016;-72
2021/11/19 04:04:22;;;;;;;24.70;13.57;;;;;;;4.37;84.12;99043.94;5070235;28;20028;-71
2021/11/19 04:06:48;;;;;;;24.75;12.85;;;;;;;4.37;84.05;99045.84;5089653;28;20039;-72
2021/11/19 04:09:14;;;;;;;23.92;12.45;;;;;;;4.37;84.21;99038.50;5089642;28;20058;-71
2021/11/19 04:11:40;;;;;;;26.80;13.63;;;;;;;4.36;84.14;99031.41;5089681;28;20085;-72
2021/11/19 04:14:06;;;;;;;24.83;13.00;;;;;;;4.37;84.21;99034.97;5088922;28;20074;-71
2021/11/19 04:16:38;;;;;;;22.98;12.73;;;;;;;4.35;83.96;99032.47;5089928;28;20509;-71
2021/11/19 04:19:07;;;;;;;28.15;13.50;;;;;;;4.37;84.50;99034.97;5090013;28;20388;-71
2021/11/19 04:21:32;;;;;;;24.23;12.73;;;;;;;4.35;84.96;99042.53;5088941;28;20032;-71
2021/11/19 04:23:59;;;;;;;25.00;12.07;;;;;;;4.38;85.00;99040.16;5089282;28;20099;-72
2021/11/19 04:26:28;;;;;;;20.95;12.75;;;;;;;4.36;85.17;99036.03;5089024;28;20093;-71
2021/11/19 04:28:54;;;;;;;27.73;14.10;;;;;;;4.36;84.82;99038.75;5068385;28;20028;-72
2021/11/19 04:31:21;;;;;;;25.77;13.20;;;;;;;4.37;84.95;99037.69;5089986;28;20044;-71
2021/11/19 04:33:49;;;;;;;25.48;14.30;;;;;;;4.37;85.17;99024.94;5090420;28;20024;-71
2021/11/19 04:36:15;;;;;;;27.88;14.00;;;;;;;4.40;84.87;99024.44;5089062;28;20036;-71
2021/11/19 04:38:41;;;;;;;27.90;13.52;;;;;;;4.41;85.11;99026.09;5090158;28;20026;-71
2021/11/19 04:41:07;;;;;;;23.83;12.70;;;;;;;4.40;84.95;99029.06;5089218;28;20411;-70
2021/11/19 04:43:35;;;;;;;21.27;11.50;;;;;;;4.41;85.52;99023.38;5089166;28;20658;-71
2021/11/19 04:46:01;;;;;;;22.38;12.43;;;;;;;4.40;85.03;99018.19;5088937;28;20023;-71
2021/11/19 04:48:31;;;;;;;24.63;13.73;;;;;;;4.42;85.19;99016.06;5089413;28;20173;-71
2021/11/19 04:50:57;;;;;;;24.27;12.88;;;;;;;4.42;85.82;99021.50;5083793;28;20433;-71
2021/11/19 04:53:24;;;;;;;24.70;13.40;;;;;;;4.40;85.13;99013.56;5088360;28;20111;-71
2021/11/19 04:55:50;;;;;;;23.25;12.98;;;;;;;4.42;84.98;99019.59;5070134;28;20396;-71
2021/11/19 04:58:16;;;;;;;23.98;12.45;;;;;;;4.43;85.61;99023.16;5088869;28;20024;-70
2021/11/19 05:00:49;;;;;;;23.95;12.32;;;;;;;4.44;85.49;99019.38;5086047;28;20051;-71
2021/11/19 05:03:15;;;;;;;27.77;14.48;;;;;;;4.46;85.33;99023.47;5070898;28;20032;-71
2021/11/19 05:05:43;;;;;;;24.52;12.30;;;;;;;4.45;85.37;99023.72;5089032;28;20040;-71
2021/11/19 05:08:10;;;;;;;24.45;12.90;;;;;;;4.48;86.41;99012.38;5089382;28;20059;-70
2021/11/19 05:10:38;;;;;;;25.20;13.80;;;;;;;4.45;85.83;99016.41;5088969;28;20024;-71
2021/11/19 05:13:05;;;;;;;28.17;14.23;;;;;;;4.45;86.27;99007.44;5088448;28;20116;-71
2021/11/19 05:15:32;;;;;;;24.95;13.43;;;;;;;4.44;85.52;99000.34;5088637;28;20416;-71
2021/11/19 05:17:57;;;;;;;26.20;14.45;;;;;;;4.46;85.78;99004.47;5088893;28;20024;-71
2021/11/19 05:20:24;;;;;;;24.23;13.10;;;;;;;4.45;86.31;99002.00;5089151;28;20023;-71
2021/11/19 05:22:51;;;;;;;25.92;14.35;;;;;;;4.45;86.23;99012.88;5088020;28;20020;-71
2021/11/19 05:25:20;;;;;;;26.35;14.02;;;;;;;4.46;86.00;99009.09;5090112;28;20476;-71
2021/11/19 05:27:46;;;;;;;25.63;13.88;;;;;;;4.47;86.70;99018.88;5090774;28;20016;-71
2021/11/19 05:30:13;;;;;;;25.95;14.77;;;;;;;4.46;86.36;99017.25;5090154;28;20040;-71
2021/11/19 05:32:39;;;;;;;25.98;13.82;;;;;;;4.46;85.70;98999.03;5089881;28;20469;-71
2021/11/19 05:35:07;;;;;;;26.40;14.20;;;;;;;4.49;86.60;99005.84;5089757;28;20051;-71
2021/11/19 05:37:32;;;;;;;25.10;14.15;;;;;;;4.51;86.56;99008.34;5071911;28;20361;-70
2021/11/19 05:39:57;;;;;;;25.55;15.60;;;;;;;4.52;86.32;99012.72;5091295;28;20027;-71
2021/11/19 05:42:23;;;;;;;30.08;15.65;;;;;;;4.52;86.56;99018.16;5075277;28;20036;-71
2021/11/19 05:44:49;;;;;;;28.15;14.40;;;;;;;4.54;87.03;99013.31;5093338;28;20056;-71
2021/11/19 05:47:14;;;;;;;26.20;13.30;;;;;;;4.54;87.00;99013.31;5094519;28;20528;-71
2021/11/19 05:49:41;;;;;;;23.35;13.15;;;;;;;4.55;86.37;99021.19;5093724;28;20028;-71
2021/11/19 05:52:09;;;;;;;25.73;13.55;;;;;;;4.55;87.02;99017.66;5074967;28;20380;-71
2021/11/19 05:54:35;;;;;;;28.52;14.48;;;;;;;4.55;86.66;99025.81;5093562;28;20035;-71
2021/11/19 05:57:04;;;;;;;26.33;12.80;;;;;;;4.55;86.31;99033.97;5093713;28;20406;-71
2021/11/19 05:59:30;;;;;;;28.10;13.38;;;;;;;4.55;86.77;99037.50;5093787;28;20020;-71
2021/11/19 06:01:56;;;;;;;36.17;16.20;;;;;;;4.56;86.72;99032.91;5093120;28;20028;-70
2021/11/19 06:04:22;;;;;;;44.58;18.48;;;;;;;4.58;87.04;99036.19;5075493;28;20027;-70
2021/11/19 06:06:48;;;;;;;45.45;18.35;;;;;;;4.58;87.14;99028.84;5093606;28;20107;-71
2021/11/19 06:09:19;;;;;;;33.80;15.07;;;;;;;4.61;86.92;99041.16;5093227;28;20111;-71
2021/11/19 06:11:51;;;;;;;33.42;16.05;;;;;;;4.65;86.94;99038.75;5092511;28;20044;-71
2021/11/19 06:14:22;;;;;;;29.55;15.43;;;;;;;4.67;87.04;99037.47;5092735;28;20031;-71
2021/11/19 06:16:54;;;;;;;35.00;15.40;;;;;;;4.69;86.38;99037.22;5092526;28;20131;-71
2021/11/19 06:19:26;;;;;;;31.52;14.88;;;;;;;4.72;86.56;99040.25;5093443;28;20103;-71
2021/11/19 06:21:55;;;;;;;35.70;16.60;;;;;;;4.71;86.47;99038.59;5092179;28;20035;-71
2021/11/19 06:24:32;;;;;;;36.33;16.58;;;;;;;4.74;87.00;99049.00;5093059;28;20063;-71
2021/11/19 06:26:58;;;;;;;29.05;15.98;;;;;;;4.77;87.62;99051.22;5092973;28;20035;-72
2021/11/19 06:29:24;;;;;;;36.65;17.52;;;;;;;4.79;86.71;99053.72;5092416;28;20503;-71
2021/11/19 06:31:53;;;;;;;32.05;16.02;;;;;;;4.81;87.21;99057.00;5091963;28;20028;-71
2021/11/19 06:34:19;;;;;;;31.43;14.83;;;;;;;4.82;87.27;99058.66;5092660;28;20434;-71
2021/11/19 06:36:45;;;;;;;25.98;14.00;;;;;;;4.83;87.00;99060.31;5093138;28;20032;-71
2021/11/19 06:39:11;;;;;;;29.35;14.18;;;;;;;4.86;86.85;99053.56;5092441;28;20032;-71
2021/11/19 06:41:37;;;;;;;27.45;14.20;;;;;;;4.87;87.43;99063.34;5092398;28;20036;-71
2021/11/19 06:44:03;;;;;;;28.10;15.77;;;;;;;4.87;86.36;99058.75;5091730;28;20036;-70
2021/11/19 06:46:29;;;;;;;27.35;14.82;;;;;;;4.89;86.74;99069.38;5092320;28;20024;-71
2021/11/19 06:48:55;;;;;;;30.33;14.43;;;;;;;4.89;86.81;99066.66;5092691;28;20488;-71
2021/11/19 06:51:21;;;;;;;32.13;15.23;;;;;;;4.90;87.06;99069.13;5091815;28;20499;-71
2021/11/19 06:53:47;;;;;;;25.63;13.50;;;;;;;4.91;87.39;99059.09;5092230;28;20383;-71
2021/11/19 06:56:15;;;;;;;29.33;15.60;;;;;;;4.91;87.08;99061.81;5091818;28;20088;-71
2021/11/19 06:58:40;;;;;;;26.10;15.45;;;;;;;4.93;87.21;99070.53;5091880;28;20058;-70
2021/11/19 07:01:06;;;;;;;29.05;16.20;;;;;;;4.96;87.25;99064.63;5091529;28;20063;-72
2021/11/19 07:03:32;;;;;;;24.05;14.10;;;;;;;4.99;87.19;99066.84;5091970;28;20054;-72
2021/11/19 07:05:58;;;;;;;24.52;14.15;;;;;;;5.02;87.09;99069.09;5091793;28;20488;-72
2021/11/19 07:08:24;;;;;;;24.60;16.13;;;;;;;5.04;87.44;99069.66;5091538;28;20028;-71
2021/11/19 07:10:53;;;;;;;26.15;15.00;;;;;;;5.06;87.40;99080.28;5090907;28;20074;-71
2021/11/19 07:13:19;;;;;;;25.45;15.18;;;;;;;5.07;87.27;99090.94;5091729;28;20404;-74
2021/11/19 07:15:45;;;;;;;25.05;14.45;;;;;;;5.10;87.01;99094.19;5092390;28;20476;-72
2021/11/19 07:18:10;;;;;;;23.73;14.52;;;;;;;5.10;87.21;99086.88;5092034;28;20028;-76
2021/11/19 07:20:37;;;;;;;25.27;14.98;;;;;;;5.13;87.17;99089.09;5091427;28;20027;-74
2021/11/19 07:23:04;;;;;;;25.67;14.95;;;;;;;5.16;87.12;99093.22;5091797;28;20054;-74
2021/11/19 07:25:31;;;;;;;26.77;15.32;;;;;;;5.18;86.99;99091.94;5074021;28;20468;-74
2021/11/19 07:27:59;;;;;;;26.85;15.02;;;;;;;5.21;87.72;99083.28;5092253;28;20150;-73
2021/11/19 07:30:34;;;;;;;25.42;16.42;;;;;;;5.22;87.13;99097.69;5091861;28;20752;-74
2021/11/19 07:33:00;;;;;;;36.53;19.98;;;;;;;5.25;87.54;99097.19;5091576;28;20047;-74
2021/11/19 07:35:26;;;;;;;33.05;19.45;;;;;;;5.25;87.77;99097.19;5091826;28;20067;-75
2021/11/19 07:37:52;;;;;;;27.35;16.55;;;;;;;5.28;87.33;99095.91;5091941;28;20028;-74
2021/11/19 07:40:21;;;;;;;32.22;20.60;;;;;;;5.29;87.07;99095.63;5091780;28;20020;-74
2021/11/19 07:42:47;;;;;;;31.23;17.48;;;;;;;5.31;87.59;99092.66;5091497;28;20495;-74
2021/11/19 07:45:13;;;;;;;34.75;20.60;;;;;;;5.34;87.56;99095.72;5073758;28;20145;-74
2021/11/19 07:47:40;;;;;;;30.70;18.35;;;;;;;5.37;87.60;99091.69;5091804;28;20063;-74
2021/11/19 07:50:09;;;;;;;25.65;16.35;;;;;;;5.38;87.66;99089.81;5091553;28;20064;-74
2021/11/19 07:52:35;;;;;;;33.38;18.15;;;;;;;5.41;87.62;99092.03;5091427;28;20019;-74
2021/11/19 07:55:03;;;;;;;32.03;18.63;;;;;;;5.44;87.81;99103.22;5091370;28;20024;-73
2021/11/19 07:57:28;;;;;;;43.17;28.00;;;;;;;5.45;87.43;99095.91;5091526;28;20153;-74
2021/11/19 07:59:54;;;;;;;40.00;25.38;;;;;;;5.47;87.73;99096.50;5091612;28;20115;-74
2021/11/19 08:02:19;;;;;;;37.45;23.08;;;;;;;5.47;87.55;99094.56;5072479;28;20077;-74
2021/11/19 08:04:46;;;;;;;52.78;31.05;;;;;;;5.48;87.97;99092.69;5090973;28;20016;-74
2021/11/19 08:07:11;;;;;;;42.95;25.35;;;;;;;5.52;87.49;99096.53;5056822;28;20031;-74
2021/11/19 08:09:37;;;;;;;97.88;45.65;;;;;;;5.55;87.66;99097.97;5091368;28;20016;-74
2021/11/19 08:12:04;;;;;;;44.20;23.98;;;;;;;5.57;87.93;99096.63;5091084;28;20379;-74
2021/11/19 08:14:29;;;;;;;63.05;30.45;;;;;;;5.60;88.17;99100.78;5090983;28;20027;-74
2021/11/19 08:17:04;;;;;;;86.75;37.28;;;;;;;5.59;88.40;99093.69;5091191;28;20051;-74
2021/11/19 08:19:34;;;;;;;77.82;39.33;;;;;;;5.62;87.83;99093.19;5087848;28;20116;-74
2021/11/19 08:22:02;;;;;;;36.25;19.23;;;;;;;5.68;87.76;99102.25;5091075;28;20158;-74
2021/11/19 08:24:30;;;;;;;45.17;23.83;;;;;;;5.69;88.15;99102.00;5091034;28;20024;-74
2021/11/19 08:27:00;;;;;;;83.50;45.28;;;;;;;5.71;88.39;99107.19;5091402;28;20028;-74
2021/11/19 08:29:29;;;;;;;39.85;23.20;;;;;;;5.73;88.36;99110.50;5091245;28;20153;-74
2021/11/19 08:31:56;;;;;;;47.25;30.05;;;;;;;5.72;87.88;99106.94;5086802;28;20107;-74
2021/11/19 08:34:23;;;;;;;46.92;30.52;;;;;;;5.74;88.22;99109.41;5090657;28;20020;-74
2021/11/19 08:36:48;;;;;;;23.85;15.85;;;;;;;5.76;88.14;99118.16;5090983;28;20040;-74
2021/11/19 08:39:17;;;;;;;26.00;18.27;;;;;;;5.78;88.20;99107.84;5090866;28;20365;-74
2021/11/19 08:41:43;;;;;;;31.00;21.27;;;;;;;5.80;88.29;99105.72;5072794;28;20024;-74
2021/11/19 08:44:09;;;;;;;34.80;22.95;;;;;;;5.84;88.57;99098.69;5090677;28;20034;-74
2021/11/19 08:46:39;;;;;;;29.20;20.65;;;;;;;5.86;88.38;99098.44;5090590;28;20024;-73
2021/11/19 08:49:08;;;;;;;28.30;17.10;;;;;;;5.88;88.27;99101.72;5091263;28;20540;-74
2021/11/19 08:51:34;;;;;;;24.80;15.13;;;;;;;5.88;88.00;99107.19;5090539;28;20032;-74
2021/11/19 08:54:03;;;;;;;30.77;21.50;;;;;;;5.89;88.51;99106.94;5090648;28;20024;-74
2021/11/19 08:56:30;;;;;;;32.25;21.65;;;;;;;5.90;88.72;99105.03;5090577;28;20036;-74
2021/11/19 08:58:57;;;;;;;25.50;17.67;;;;;;;5.93;88.55;99108.06;5090606;28;20036;-74
2021/11/19 09:01:23;;;;;;;23.75;15.65;;;;;;;5.93;87.97;99102.63;5090190;28;20016;-74
2021/11/19 09:03:49;;;;;;;28.80;17.65;;;;;;;5.95;88.08;99114.09;5090774;28;20029;-74
2021/11/19 09:06:17;;;;;;;23.40;15.45;;;;;;;5.97;88.07;99117.38;5072198;28;20362;-74
2021/11/19 09:08:44;;;;;;;34.40;23.02;;;;;;;6.00;88.04;99112.53;5089646;28;20020;-74
2021/11/19 09:11:14;;;;;;;39.28;26.88;;;;;;;6.03;88.38;99117.50;5071672;28;20532;-75
2021/11/19 09:13:40;;;;;;;;;;;;;;;6.05;88.14;99126.25;5090085;28;20047;-72
2021/11/19 09:16:09;;;;;;;28.40;17.40;;;;;;;6.06;87.81;99119.72;5089176;28;19986;-72
2021/11/19 09:19:08;;;;;;;45.13;27.13;;;;;;;6.12;87.90;99129.63;5093387;28;20047;-73
2021/11/19 09:21:39;;;;;;;50.08;32.08;;;;;;;6.15;87.91;99112.78;5047682;28;20170;-74
2021/11/19 09:24:08;;;;;;;37.38;26.15;;;;;;;6.17;87.71;99121.53;5093094;28;20123;-73
2021/11/19 09:26:54;;;;;;;29.83;19.83;;;;;;;6.18;87.87;99119.63;5092417;28;20035;-73
2021/11/19 09:29:33;;;;;;;37.50;23.25;;;;;;;6.18;87.94;99115.00;5094500;28;20031;-74
2021/11/19 09:31:59;;;;;;;32.65;23.42;;;;;;;6.18;88.08;99122.34;5073641;28;20024;-73
2021/11/19 09:34:28;;;;;;;30.88;20.65;;;;;;;6.20;87.87;99112.84;5092851;28;20559;-73
2021/11/19 09:36:53;;;;;;;33.92;22.40;;;;;;;6.22;87.68;99120.75;5093156;28;20073;-73
2021/11/19 09:39:22;;;;;;;30.05;19.05;;;;;;;6.23;88.32;99116.97;5093124;28;20030;-68
2021/11/19 09:41:53;;;;;;;40.70;26.92;;;;;;;6.26;88.18;99113.75;5073704;28;20680;-71
2021/11/19 09:44:29;;;;;;;46.55;29.58;;;;;;;6.25;88.13;99107.47;5094243;28;20099;-72
2021/11/19 09:47:23;;;;;;;35.33;23.55;;;;;;;6.27;87.84;99115.38;5092223;28;20051;-72
2021/11/19 09:50:07;;;;;;;35.75;24.13;;;;;;;6.32;88.06;99111.91;5052179;28;20040;-71
2021/11/19 09:53:09;;;;;;;28.42;15.85;;;;;;;6.32;88.25;99111.91;5087341;28;20480;-70
2021/11/19 09:56:00;;;;;;;31.95;20.77;;;;;;;6.36;88.03;99102.97;5090929;28;20039;-70
2021/11/19 09:58:46;;;;;;;33.60;21.13;;;;;;;6.40;87.82;99106.84;5092364;28;20095;-68
2021/11/19 10:01:26;;;;;;;35.25;18.80;;;;;;;6.43;88.12;99105.50;5088855;28;20533;-68
2021/11/19 10:03:56;;;;;;;51.50;25.40;;;;;;;6.46;88.37;99101.47;5089943;28;20385;-69
2021/11/19 10:06:42;;;;;;;31.67;19.15;;;;;;;6.47;88.03;99105.84;5090610;28;20028;-68
2021/11/19 10:09:21;;;;;;;28.10;18.85;;;;;;;6.48;88.21;99104.78;5091138;28;20016;-69
2021/11/19 10:11:54;;;;;;;25.57;16.07;;;;;;;6.51;88.46;99113.25;5091025;28;20024;-68
2021/11/19 10:14:43;;;;;;;47.72;25.95;;;;;;;6.51;88.21;99112.44;5090821;28;20688;-68
2021/11/19 10:17:38;;;;;;;40.17;20.00;;;;;;;6.51;88.00;99112.44;5089602;28;20036;-68
2021/11/19 10:20:15;;;;;;;34.85;20.83;;;;;;;6.51;88.26;99115.97;5094165;28;20020;-68
2021/11/19 10:22:55;;;;;;;35.78;22.70;;;;;;;6.52;88.29;99109.44;5092362;28;20032;-67
2021/11/19 10:25:36;;;;;;;;;;;;;;;6.54;87.95;99112.75;5092001;28;20047;-67
2021/11/19 10:28:07;;;;;;;32.55;20.20;;;;;;;6.56;88.02;99104.31;5092002;28;19916;-69
2021/11/19 10:30:43;;;;;;;34.20;21.55;;;;;;;6.59;87.85;99092.09;5092502;28;20409;-68
2021/11/19 10:33:44;;;;;;;41.78;25.52;;;;;;;6.62;88.02;99097.03;5091683;28;20024;-69
2021/11/19 10:36:28;;;;;;;37.78;22.23;;;;;;;6.63;88.25;99098.69;5073833;28;20598;-70
2021/11/19 10:39:24;;;;;;;36.70;21.73;;;;;;;6.63;88.08;99099.50;5094652;28;20036;-69
2021/11/19 10:42:13;;;;;;;42.35;24.52;;;;;;;6.67;88.11;99094.38;5088233;28;20028;-69
2021/11/19 10:44:57;;;;;;;44.50;24.17;;;;;;;6.67;87.92;99092.44;5089769;28;20475;-68
2021/11/19 10:47:53;;;;;;;31.17;19.20;;;;;;;6.67;87.74;99097.09;5091891;28;20266;-68
2021/11/19 10:50:33;;;;;;;49.40;27.27;;;;;;;6.68;87.70;99090.56;5090964;28;20032;-69
2021/11/19 10:53:47;;;;;;;39.17;21.67;;;;;;;6.65;87.69;99085.63;5091238;28;20499;-68
2021/11/19 10:56:24;;;;;;;39.78;23.10;;;;;;;6.67;87.85;99080.75;5027426;28;20047;-70
2021/11/19 10:58:57;;;;;;;35.75;22.15;;;;;;;6.72;87.77;99072.63;5090596;28;20032;-68
2021/11/19 11:01:44;;;;;;;36.78;22.00;;;;;;;6.78;87.71;99073.50;5089114;28;20647;-69
2021/11/19 11:04:29;;;;;;;37.25;21.67;;;;;;;6.82;87.73;99071.91;5089229;28;20059;-69
2021/11/19 11:07:23;;;;;;;35.10;20.55;;;;;;;6.83;87.88;99071.63;5089396;28;20523;-70
2021/11/19 11:09:53;;;;;;;28.50;16.90;;;;;;;6.87;87.84;99071.97;5091233;28;20114;-70
2021/11/19 11:12:19;;;;;;;30.90;18.85;;;;;;;6.91;87.91;99073.09;5091109;28;20027;-69
2021/11/19 11:14:47;;;;;;;32.55;19.23;;;;;;;6.93;87.94;99081.81;5092015;28;20395;-69
2021/11/19 11:17:21;;;;;;;33.42;19.60;;;;;;;6.94;87.82;99074.47;5091709;28;20084;-70
2021/11/19 11:19:48;;;;;;;38.45;21.38;;;;;;;6.97;87.60;99090.31;5091847;28;20028;-68
2021/11/19 11:22:25;;;;;;;34.70;20.42;;;;;;;7.00;87.82;99078.91;5089444;28;20027;-69
2021/11/19 11:24:53;;;;;;;34.88;19.38;;;;;;;7.03;87.87;99078.41;5090237;28;20012;-70
2021/11/19 11:27:37;;;;;;;31.45;18.08;;;;;;;7.07;87.74;99071.34;5091006;28;20103;-70
2021/11/19 11:30:06;;;;;;;39.03;19.90;;;;;;;7.11;88.16;99072.47;5091229;28;20127;-69
2021/11/19 11:32:49;;;;;;;37.80;19.58;;;;;;;7.17;87.80;99073.34;5089757;28;20031;-69
2021/11/19 11:35:33;;;;;;;51.25;26.25;;;;;;;7.21;88.00;99071.75;5084758;28;20098;-70
2021/11/19 11:38:19;;;;;;;52.33;26.33;;;;;;;7.23;88.00;99071.47;5089125;28;20110;-69
2021/11/19 11:41:05;;;;;;;41.53;21.38;;;;;;;7.25;88.09;99070.16;5089564;28;20032;-70
2021/11/19 11:43:38;;;;;;;36.75;19.45;;;;;;;7.26;87.88;99074.53;5088867;28;20063;-68